Melfort, Canada
Current Conditions -  °F | °C
As of 2:00 AM on Thursday 18 Dec 2014 (Local Time) from CYBU Reporting Station
Light Snow Light Snow  
Wind Chill: -15°   Ceiling: 1300
Heat Index: -8°   Visibility: 9mi
Dew Point: -10°   Wind: 12mph
Humidity: 86%   Direction: 200°SSW
Pressure: 30.03"   Gusts: NA
Location:  52.86°N, 104.62°W
Report Text: CYBU 180800Z AUTO 20010KT 9SM -SN OVC013 M08/M10 A3003 RMK SLP198
Loading
Personal Weather Stations






























Interactive Weather Map New forecast layout! Learn more

10-Day Weather Forecast

Advertisements
Track Severe Weather on mobile